Time;durP1;ratioP1;P1;durP2;ratioP2;P2;SDS_P1;SDS_P2;PMS_P1;PMS_P2;Temp;Humidity;BMP_temperature;BMP_pressure;BME280_temperature;BME280_humidity;BME280_pressure;Samples;Min_cycle;Max_cycle;Signal;HPM_P1;HPM_P2
2023/10/28 00:00:32;;;;;;;8.25;7.75;;;;;;;;;;5070883;28;20032;-70
2023/10/28 00:02:58;;;;;;;7.70;7.20;;;;;;;;;;5070464;28;20048;-70
2023/10/28 00:05:24;;;;;;;8.02;7.53;;;;;;;;;;5053960;28;20071;-69
2023/10/28 00:07:50;;;;;;;8.07;7.57;;;;;;;;;;5056244;28;20088;-69
2023/10/28 00:10:18;;;;;;;7.72;7.22;;;;;;;;;;5037953;28;20064;-70
2023/10/28 00:12:44;;;;;;;9.48;7.57;;;;;;;;;;5055300;28;20038;-69
2023/10/28 00:15:10;;;;;;;8.00;7.50;;;;;;;;;;5053436;28;20060;-70
2023/10/28 00:17:37;;;;;;;8.02;7.53;;;;;;;;;;5052199;28;20112;-70
2023/10/28 00:20:05;;;;;;;7.97;7.57;;;;;;;;;;5049256;28;20044;-71
2023/10/28 00:22:33;;;;;;;7.45;6.95;;;;;;;;;;5051844;28;20108;-69
2023/10/28 00:24:59;;;;;;;7.60;7.20;;;;;;;;;;5052863;28;20121;-71
2023/10/28 00:27:25;;;;;;;7.32;6.82;;;;;;;;;;5052962;28;20075;-70
2023/10/28 00:29:52;;;;;;;8.05;7.43;;;;;;;;;;5044779;28;20064;-70
2023/10/28 00:32:22;;;;;;;7.90;7.30;;;;;;;;;;5049741;28;20358;-70
2023/10/28 00:34:51;;;;;;;8.02;7.53;;;;;;;;;;5043676;28;20041;-69
2023/10/28 00:37:17;;;;;;;7.68;7.28;;;;;;;;;;5049729;28;20045;-71
2023/10/28 00:39:42;;;;;;;7.95;7.35;;;;;;;;;;5052705;28;20055;-71
2023/10/28 00:42:13;;;;;;;8.07;7.68;;;;;;;;;;5038371;28;20037;-69
2023/10/28 00:44:41;;;;;;;7.85;7.45;;;;;;;;;;5049548;28;20186;-71
2023/10/28 00:47:07;;;;;;;8.13;7.17;;;;;;;;;;5039992;28;20032;-70
2023/10/28 00:49:33;;;;;;;7.68;7.00;;;;;;;;;;5041246;28;20154;-70
2023/10/28 00:51:59;;;;;;;7.72;7.32;;;;;;;;;;5052236;28;20102;-69
2023/10/28 00:54:25;;;;;;;7.57;7.18;;;;;;;;;;5042306;28;20047;-69
2023/10/28 00:56:53;;;;;;;7.68;7.22;;;;;;;;;;5048620;28;20032;-70
2023/10/28 00:59:18;;;;;;;8.20;7.75;;;;;;;;;;5047440;28;20067;-69
2023/10/28 01:01:44;;;;;;;8.07;7.38;;;;;;;;;;5040888;28;20577;-70
2023/10/28 01:04:10;;;;;;;7.93;7.32;;;;;;;;;;5039917;28;20071;-70
2023/10/28 01:06:38;;;;;;;7.90;7.40;;;;;;;;;;5048873;28;20115;-71
2023/10/28 01:09:03;;;;;;;8.55;7.95;;;;;;;;;;5031792;28;20048;-70
2023/10/28 01:11:29;;;;;;;10.05;7.63;;;;;;;;;;5041796;28;20048;-71
2023/10/28 01:13:54;;;;;;;7.80;7.40;;;;;;;;;;5037315;28;20588;-72
2023/10/28 01:16:22;;;;;;;7.82;7.30;;;;;;;;;;5035154;28;20482;-72
2023/10/28 01:18:56;;;;;;;7.68;7.28;;;;;;;;;;5044909;28;20111;-70
2023/10/28 01:21:22;;;;;;;8.13;7.63;;;;;;;;;;5017943;28;20044;-69
2023/10/28 01:23:47;;;;;;;7.85;7.38;;;;;;;;;;5040942;28;20040;-71
2023/10/28 01:26:13;;;;;;;7.60;7.20;;;;;;;;;;5038772;28;20028;-70
2023/10/28 01:28:38;;;;;;;8.00;7.47;;;;;;;;;;5049030;28;20027;-71
2023/10/28 01:31:04;;;;;;;7.70;7.20;;;;;;;;;;5026252;28;20083;-71
2023/10/28 01:33:30;;;;;;;8.00;7.50;;;;;;;;;;5053945;28;20024;-70
2023/10/28 01:35:55;;;;;;;8.00;7.60;;;;;;;;;;5041230;28;20036;-71
2023/10/28 01:38:23;;;;;;;8.20;7.60;;;;;;;;;;5033862;28;20640;-70
2023/10/28 01:40:52;;;;;;;8.02;7.50;;;;;;;;;;5046665;28;20039;-69
2023/10/28 01:43:19;;;;;;;8.32;7.75;;;;;;;;;;5047718;28;20036;-70
2023/10/28 01:45:45;;;;;;;7.80;7.30;;;;;;;;;;5033253;28;20043;-69
2023/10/28 01:48:11;;;;;;;7.80;7.30;;;;;;;;;;5024464;28;20082;-69
2023/10/28 01:50:37;;;;;;;7.65;6.97;;;;;;;;;;5024632;28;20127;-69
2023/10/28 01:53:03;;;;;;;7.45;6.90;;;;;;;;;;5034823;28;20076;-70
2023/10/28 01:55:29;;;;;;;8.07;7.53;;;;;;;;;;5032767;28;20035;-70
2023/10/28 01:57:54;;;;;;;7.72;7.22;;;;;;;;;;5030164;28;20028;-69
2023/10/28 02:00:22;;;;;;;7.60;7.10;;;;;;;;;;5035136;28;20095;-69
2023/10/28 02:02:48;;;;;;;7.97;7.35;;;;;;;;;;5031140;28;20637;-71
2023/10/28 02:05:15;;;;;;;8.00;7.45;;;;;;;;;;5032567;28;20700;-69
2023/10/28 02:07:40;;;;;;;7.63;7.18;;;;;;;;;;5044203;28;20033;-70
2023/10/28 02:10:06;;;;;;;7.70;7.20;;;;;;;;;;5034675;28;20035;-71
2023/10/28 02:12:34;;;;;;;7.93;7.20;;;;;;;;;;5049018;28;20609;-71
2023/10/28 02:15:02;;;;;;;7.55;6.95;;;;;;;;;;5029021;28;20040;-70
2023/10/28 02:17:28;;;;;;;7.60;7.00;;;;;;;;;;5037016;28;20220;-70
2023/10/28 02:19:56;;;;;;;7.55;6.90;;;;;;;;;;5029905;28;20521;-69
2023/10/28 02:22:22;;;;;;;9.00;8.25;;;;;;;;;;5031637;28;20037;-69
2023/10/28 02:24:48;;;;;;;7.82;7.22;;;;;;;;;;5039850;28;20658;-68
2023/10/28 02:27:14;;;;;;;7.85;7.25;;;;;;;;;;5041498;28;20044;-71
2023/10/28 02:29:40;;;;;;;7.82;6.93;;;;;;;;;;5033300;28;20046;-69
2023/10/28 02:32:08;;;;;;;8.90;7.13;;;;;;;;;;5041522;28;20528;-69
2023/10/28 02:34:34;;;;;;;8.18;7.50;;;;;;;;;;5049545;28;20032;-70
2023/10/28 02:36:59;;;;;;;7.88;7.00;;;;;;;;;;5036617;28;20134;-70
2023/10/28 02:39:26;;;;;;;8.20;7.40;;;;;;;;;;5048456;28;20045;-71
2023/10/28 02:41:55;;;;;;;8.30;7.60;;;;;;;;;;5039525;28;20719;-71
2023/10/28 02:44:21;;;;;;;10.63;7.45;;;;;;;;;;5047884;28;20033;-70
2023/10/28 02:46:48;;;;;;;8.00;7.47;;;;;;;;;;5050418;28;20042;-71
2023/10/28 02:49:14;;;;;;;8.02;7.32;;;;;;;;;;5029175;28;20078;-69
2023/10/28 02:51:39;;;;;;;8.60;7.70;;;;;;;;;;5040617;28;20033;-69
2023/10/28 02:54:05;;;;;;;7.85;7.15;;;;;;;;;;5023466;28;20037;-70
2023/10/28 02:56:31;;;;;;;8.55;7.80;;;;;;;;;;5046668;28;20472;-69
2023/10/28 02:58:57;;;;;;;8.20;7.50;;;;;;;;;;5043838;28;20722;-69
2023/10/28 03:01:23;;;;;;;7.95;7.30;;;;;;;;;;5038740;28;20033;-69
2023/10/28 03:03:48;;;;;;;7.82;7.10;;;;;;;;;;5039034;28;20040;-69
2023/10/28 03:06:14;;;;;;;8.18;7.35;;;;;;;;;;5035010;28;20068;-69
2023/10/28 03:08:41;;;;;;;8.45;7.57;;;;;;;;;;5038486;28;20466;-69
2023/10/28 03:11:07;;;;;;;8.85;7.80;;;;;;;;;;5041645;28;20032;-69
2023/10/28 03:13:33;;;;;;;7.90;7.40;;;;;;;;;;5036170;28;20060;-67
2023/10/28 03:15:59;;;;;;;8.88;7.60;;;;;;;;;;5037911;28;20482;-68
2023/10/28 03:18:24;;;;;;;13.38;8.52;;;;;;;;;;5036483;28;20049;-69
2023/10/28 03:20:51;;;;;;;8.23;7.55;;;;;;;;;;5028054;28;20036;-69
2023/10/28 03:23:17;;;;;;;8.50;7.70;;;;;;;;;;5047324;28;20102;-68
2023/10/28 03:25:42;;;;;;;8.90;8.02;;;;;;;;;;5029503;28;20493;-69
2023/10/28 03:28:08;;;;;;;8.60;7.80;;;;;;;;;;5047465;28;20121;-69
2023/10/28 03:30:34;;;;;;;8.63;7.70;;;;;;;;;;5048524;28;20040;-69
2023/10/28 03:33:00;;;;;;;8.20;7.40;;;;;;;;;;5048139;28;20100;-69
2023/10/28 03:35:26;;;;;;;8.38;7.57;;;;;;;;;;5041186;28;21394;-68
2023/10/28 03:37:52;;;;;;;8.65;7.75;;;;;;;;;;5043218;28;20036;-68
2023/10/28 03:40:18;;;;;;;8.45;7.65;;;;;;;;;;5036073;28;20044;-69
2023/10/28 03:42:44;;;;;;;8.35;7.60;;;;;;;;;;5051371;28;20071;-69
2023/10/28 03:45:10;;;;;;;8.90;8.00;;;;;;;;;;5041405;28;20041;-68
2023/10/28 03:47:38;;;;;;;8.68;7.90;;;;;;;;;;5042194;28;20386;-69
2023/10/28 03:50:04;;;;;;;12.13;7.57;;;;;;;;;;5049893;28;20679;-69
2023/10/28 03:52:30;;;;;;;8.77;7.97;;;;;;;;;;5023586;28;20135;-69
2023/10/28 03:54:55;;;;;;;21.55;8.52;;;;;;;;;;5051685;28;20132;-70
2023/10/28 03:57:21;;;;;;;9.68;8.10;;;;;;;;;;5047189;28;20040;-70
2023/10/28 03:59:48;;;;;;;9.05;8.05;;;;;;;;;;5023875;28;20447;-70
2023/10/28 04:02:13;;;;;;;9.52;7.50;;;;;;;;;;5050808;28;20173;-70
2023/10/28 04:04:39;;;;;;;8.57;7.88;;;;;;;;;;5053261;28;20699;-70
2023/10/28 04:07:04;;;;;;;8.18;7.40;;;;;;;;;;5042216;28;20045;-70
2023/10/28 04:09:30;;;;;;;8.00;7.50;;;;;;;;;;5044851;28;20032;-69
2023/10/28 04:11:56;;;;;;;8.43;7.63;;;;;;;;;;5049708;28;20046;-69
2023/10/28 04:14:21;;;;;;;11.50;7.82;;;;;;;;;;5049612;28;20021;-70
2023/10/28 04:16:47;;;;;;;8.20;7.70;;;;;;;;;;5049587;28;20021;-69
2023/10/28 04:19:12;;;;;;;12.57;7.80;;;;;;;;;;5039660;28;20041;-68
2023/10/28 04:21:38;;;;;;;9.00;8.20;;;;;;;;;;5030545;28;20049;-70
2023/10/28 04:24:04;;;;;;;8.48;7.68;;;;;;;;;;5049987;28;20040;-69
2023/10/28 04:26:30;;;;;;;10.77;8.10;;;;;;;;;;5039855;28;20036;-69
2023/10/28 04:29:00;;;;;;;9.05;8.15;;;;;;;;;;5051205;28;20036;-70
2023/10/28 04:31:28;;;;;;;8.98;8.30;;;;;;;;;;5040999;28;20155;-71
2023/10/28 04:33:54;;;;;;;8.85;8.10;;;;;;;;;;5065384;28;20033;-71
2023/10/28 04:36:19;;;;;;;8.95;8.32;;;;;;;;;;5061079;28;20069;-72
2023/10/28 04:38:45;;;;;;;9.05;8.40;;;;;;;;;;5067819;28;20048;-71
2023/10/28 04:41:10;;;;;;;8.80;7.95;;;;;;;;;;5055928;28;20040;-69
2023/10/28 04:43:36;;;;;;;8.02;7.53;;;;;;;;;;5032851;28;20036;-69
2023/10/28 04:46:01;;;;;;;8.60;7.80;;;;;;;;;;5044002;28;20041;-70
2023/10/28 04:48:28;;;;;;;9.52;8.63;;;;;;;;;;5043563;28;20111;-69
2023/10/28 04:50:55;;;;;;;9.63;8.68;;;;;;;;;;5043089;28;20067;-70
2023/10/28 04:53:20;;;;;;;9.02;8.30;;;;;;;;;;5041702;28;20056;-70
2023/10/28 04:55:46;;;;;;;8.80;8.10;;;;;;;;;;5036567;28;20071;-70
2023/10/28 04:58:11;;;;;;;8.52;7.95;;;;;;;;;;5043757;28;20139;-67
2023/10/28 05:00:37;;;;;;;9.35;8.27;;;;;;;;;;5043137;28;20025;-71
2023/10/28 05:03:03;;;;;;;13.13;8.30;;;;;;;;;;5046646;28;20102;-71
2023/10/28 05:05:29;;;;;;;8.90;8.00;;;;;;;;;;5050395;28;20038;-69
2023/10/28 05:07:55;;;;;;;8.35;7.75;;;;;;;;;;5043340;28;20094;-71
2023/10/28 05:10:21;;;;;;;8.32;7.72;;;;;;;;;;5043103;28;20145;-70
2023/10/28 05:12:47;;;;;;;8.38;7.78;;;;;;;;;;5048579;28;20120;-70
2023/10/28 05:15:12;;;;;;;8.48;7.60;;;;;;;;;;5049997;28;20049;-70
2023/10/28 05:17:38;;;;;;;8.60;7.80;;;;;;;;;;5042558;28;20045;-70
2023/10/28 05:20:08;;;;;;;8.70;8.10;;;;;;;;;;5045157;28;20044;-70
2023/10/28 05:22:37;;;;;;;9.73;8.75;;;;;;;;;;5040545;28;20044;-70
2023/10/28 05:25:04;;;;;;;9.77;8.63;;;;;;;;;;5045626;28;20059;-70
2023/10/28 05:27:31;;;;;;;9.85;8.80;;;;;;;;;;5045047;28;20037;-70
2023/10/28 05:29:56;;;;;;;10.82;8.95;;;;;;;;;;5045502;28;20123;-70
2023/10/28 05:32:22;;;;;;;9.02;8.18;;;;;;;;;;5040742;28;20119;-69
2023/10/28 05:34:47;;;;;;;8.85;8.07;;;;;;;;;;5048435;28;20032;-70
2023/10/28 05:37:14;;;;;;;10.13;7.90;;;;;;;;;;5041341;28;20065;-69
2023/10/28 05:39:40;;;;;;;8.65;7.85;;;;;;;;;;5042618;28;20108;-70
2023/10/28 05:42:11;;;;;;;8.57;7.90;;;;;;;;;;5045051;28;20067;-69
2023/10/28 05:44:37;;;;;;;9.07;8.18;;;;;;;;;;5046951;28;20033;-70
2023/10/28 05:47:04;;;;;;;8.23;7.43;;;;;;;;;;5045484;28;20280;-71
2023/10/28 05:49:30;;;;;;;7.90;7.30;;;;;;;;;;5039758;28;20485;-72
2023/10/28 05:51:55;;;;;;;8.93;8.13;;;;;;;;;;5048153;28;20025;-71
2023/10/28 05:54:21;;;;;;;8.63;7.50;;;;;;;;;;5038970;28;20047;-71
2023/10/28 05:56:46;;;;;;;8.02;7.43;;;;;;;;;;5045120;28;20033;-70
2023/10/28 05:59:12;;;;;;;8.43;7.78;;;;;;;;;;5044953;28;20047;-71
2023/10/28 06:01:37;;;;;;;9.05;8.10;;;;;;;;;;5049833;28;20146;-71
2023/10/28 06:04:04;;;;;;;8.75;7.55;;;;;;;;;;5040725;28;20122;-71
2023/10/28 06:06:29;;;;;;;7.90;7.30;;;;;;;;;;5043741;28;20681;-71
2023/10/28 06:08:57;;;;;;;8.45;7.60;;;;;;;;;;5042442;28;20036;-71
2023/10/28 06:11:23;;;;;;;8.60;7.90;;;;;;;;;;5043588;28;20521;-71
2023/10/28 06:13:48;;;;;;;8.02;7.53;;;;;;;;;;5046740;28;20514;-71
2023/10/28 06:16:14;;;;;;;8.80;8.00;;;;;;;;;;5044355;28;20044;-70
2023/10/28 06:18:40;;;;;;;8.73;7.93;;;;;;;;;;5041115;28;20370;-71
2023/10/28 06:21:06;;;;;;;8.23;7.55;;;;;;;;;;5042432;28;20512;-71
2023/10/28 06:23:32;;;;;;;8.30;7.43;;;;;;;;;;5041280;28;20072;-72
2023/10/28 06:25:57;;;;;;;8.88;7.20;;;;;;;;;;5047861;28;20528;-71
2023/10/28 06:28:23;;;;;;;8.57;7.50;;;;;;;;;;5042275;28;20036;-72
2023/10/28 06:30:49;;;;;;;7.85;7.25;;;;;;;;;;5044725;28;20447;-71
2023/10/28 06:33:16;;;;;;;7.75;7.18;;;;;;;;;;5045038;28;20040;-72
2023/10/28 06:35:42;;;;;;;7.78;6.90;;;;;;;;;;5044780;28;20040;-72
2023/10/28 06:38:08;;;;;;;8.20;7.47;;;;;;;;;;5044919;28;20037;-69
2023/10/28 06:40:37;;;;;;;8.27;7.60;;;;;;;;;;5045529;28;20379;-70
2023/10/28 06:43:03;;;;;;;7.25;6.75;;;;;;;;;;5047072;28;20033;-69
2023/10/28 06:45:29;;;;;;;7.68;7.07;;;;;;;;;;5042710;28;20500;-70
2023/10/28 06:47:55;;;;;;;8.23;7.53;;;;;;;;;;5045603;28;20146;-70
2023/10/28 06:50:21;;;;;;;9.07;7.68;;;;;;;;;;5042252;28;20093;-71
2023/10/28 06:52:49;;;;;;;7.97;7.28;;;;;;;;;;5047841;28;20116;-70
2023/10/28 06:55:16;;;;;;;7.75;7.05;;;;;;;;;;5048130;28;20479;-70
2023/10/28 06:57:42;;;;;;;8.90;8.10;;;;;;;;;;5050117;28;20065;-70
2023/10/28 07:00:13;;;;;;;8.30;7.50;;;;;;;;;;5050674;28;20105;-69
2023/10/28 07:02:43;;;;;;;7.28;6.88;;;;;;;;;;5030351;28;20091;-69
2023/10/28 07:05:10;;;;;;;9.68;7.05;;;;;;;;;;5048940;28;20040;-72
2023/10/28 07:07:39;;;;;;;7.55;6.95;;;;;;;;;;5042621;28;20079;-70
2023/10/28 07:10:05;;;;;;;7.78;7.05;;;;;;;;;;5050534;28;20044;-71
2023/10/28 07:12:31;;;;;;;8.45;7.80;;;;;;;;;;5025338;28;20048;-69
2023/10/28 07:14:58;;;;;;;8.10;7.50;;;;;;;;;;5047467;28;20040;-70
2023/10/28 07:17:24;;;;;;;8.63;8.00;;;;;;;;;;5043699;28;20964;-70
2023/10/28 07:19:50;;;;;;;8.40;7.80;;;;;;;;;;5043428;28;20738;-70
2023/10/28 07:22:16;;;;;;;9.80;8.80;;;;;;;;;;5047690;28;20051;-70
2023/10/28 07:24:42;;;;;;;10.07;9.25;;;;;;;;;;5049000;28;20494;-71
2023/10/28 07:27:08;;;;;;;8.45;7.88;;;;;;;;;;5050350;28;20048;-70
2023/10/28 07:29:34;;;;;;;8.50;7.80;;;;;;;;;;5028958;28;20040;-70
2023/10/28 07:32:01;;;;;;;8.90;8.18;;;;;;;;;;5042524;28;20033;-70
2023/10/28 07:34:28;;;;;;;8.45;7.90;;;;;;;;;;5044604;28;20039;-70
2023/10/28 07:36:53;;;;;;;7.47;6.85;;;;;;;;;;5037792;28;20115;-70
2023/10/28 07:39:19;;;;;;;7.75;7.15;;;;;;;;;;5048055;28;20095;-70
2023/10/28 07:41:45;;;;;;;8.23;7.60;;;;;;;;;;5050808;28;20380;-71
2023/10/28 07:44:10;;;;;;;7.72;7.15;;;;;;;;;;5046674;28;20032;-71
2023/10/28 07:46:36;;;;;;;8.48;7.68;;;;;;;;;;5050550;28;20036;-70
2023/10/28 07:49:01;;;;;;;7.93;7.32;;;;;;;;;;5044989;28;20041;-70
2023/10/28 07:51:27;;;;;;;7.88;7.35;;;;;;;;;;5047173;28;20115;-70
2023/10/28 07:53:53;;;;;;;7.40;6.75;;;;;;;;;;5049220;28;20036;-70
2023/10/28 07:56:19;;;;;;;7.93;7.35;;;;;;;;;;5051078;28;20064;-71
2023/10/28 07:58:45;;;;;;;7.40;6.90;;;;;;;;;;5053050;28;20501;-70
2023/10/28 08:01:18;;;;;;;8.07;7.40;;;;;;;;;;5045863;28;20045;-70
2023/10/28 08:03:46;;;;;;;7.97;7.32;;;;;;;;;;5046919;28;20044;-70
2023/10/28 08:06:12;;;;;;;8.10;7.50;;;;;;;;;;5045877;28;20052;-70
2023/10/28 08:08:40;;;;;;;7.45;6.85;;;;;;;;;;5042135;28;20452;-71
2023/10/28 08:11:06;;;;;;;7.22;6.70;;;;;;;;;;5047926;28;20032;-70
2023/10/28 08:13:36;;;;;;;8.27;7.45;;;;;;;;;;5045475;28;20036;-70
2023/10/28 08:16:03;;;;;;;7.68;7.03;;;;;;;;;;5047720;28;20052;-70
2023/10/28 08:18:31;;;;;;;9.65;7.50;;;;;;;;;;5048444;28;20043;-70
2023/10/28 08:20:57;;;;;;;7.80;7.10;;;;;;;;;;5049439;28;20501;-70
2023/10/28 08:23:23;;;;;;;8.98;7.35;;;;;;;;;;5043364;28;20119;-70
2023/10/28 08:25:49;;;;;;;7.57;7.07;;;;;;;;;;5047972;28;20415;-70
2023/10/28 08:28:16;;;;;;;7.78;7.20;;;;;;;;;;5052781;28;20044;-70
2023/10/28 08:30:42;;;;;;;8.30;7.60;;;;;;;;;;5048009;28;20587;-70
2023/10/28 08:33:08;;;;;;;8.00;7.32;;;;;;;;;;5046756;28;20090;-70
2023/10/28 08:35:34;;;;;;;10.65;6.80;;;;;;;;;;5025189;28;20128;-70
2023/10/28 08:38:05;;;;;;;7.85;7.32;;;;;;;;;;5046843;28;20063;-70
2023/10/28 08:40:34;;;;;;;7.35;6.85;;;;;;;;;;5026560;28;20111;-71
2023/10/28 08:43:00;;;;;;;7.70;6.97;;;;;;;;;;5044118;28;20091;-71
2023/10/28 08:45:27;;;;;;;7.72;7.03;;;;;;;;;;5036133;28;20441;-70
2023/10/28 08:47:53;;;;;;;7.18;6.68;;;;;;;;;;5049765;28;20082;-70
2023/10/28 08:50:27;;;;;;;7.40;6.75;;;;;;;;;;5047059;28;20032;-70
2023/10/28 08:52:56;;;;;;;7.43;6.72;;;;;;;;;;5044956;28;20039;-70
2023/10/28 08:55:23;;;;;;;6.78;6.28;;;;;;;;;;5032507;28;20032;-72
2023/10/28 08:57:51;;;;;;;8.40;7.68;;;;;;;;;;5044791;28;20139;-70
2023/10/28 09:00:19;;;;;;;7.78;7.07;;;;;;;;;;5050159;28;20036;-70
2023/10/28 09:02:46;;;;;;;8.82;8.02;;;;;;;;;;5041669;28;20368;-70
2023/10/28 09:05:13;;;;;;;7.32;6.65;;;;;;;;;;5042748;28;20033;-70
2023/10/28 09:07:38;;;;;;;7.40;6.80;;;;;;;;;;5044171;28;20343;-70
2023/10/28 09:10:04;;;;;;;7.90;7.30;;;;;;;;;;5047768;28;20710;-70
2023/10/28 09:12:33;;;;;;;7.50;6.90;;;;;;;;;;5036393;28;20036;-70
2023/10/28 09:14:59;;;;;;;8.38;7.65;;;;;;;;;;5045700;28;20188;-70
2023/10/28 09:17:24;;;;;;;8.23;7.40;;;;;;;;;;5045105;28;20124;-70
2023/10/28 09:19:53;;;;;;;8.73;7.85;;;;;;;;;;5044905;28;20059;-70
2023/10/28 09:22:20;;;;;;;8.13;7.43;;;;;;;;;;5045552;28;20127;-70
2023/10/28 09:24:46;;;;;;;8.43;7.82;;;;;;;;;;5045589;28;20147;-70
2023/10/28 09:27:13;;;;;;;8.60;7.43;;;;;;;;;;5050222;28;20033;-70
2023/10/28 09:29:41;;;;;;;7.97;7.35;;;;;;;;;;5030100;28;20041;-70
2023/10/28 09:32:08;;;;;;;10.63;7.80;;;;;;;;;;5046185;28;20033;-70
2023/10/28 09:34:39;;;;;;;8.10;7.40;;;;;;;;;;5033825;28;20036;-69
2023/10/28 09:37:08;;;;;;;7.65;7.07;;;;;;;;;;5047236;28;20070;-69
2023/10/28 09:39:35;;;;;;;;;;;;;;;;;;5050146;28;20058;-69
2023/10/28 09:42:02;;;;;;;8.20;7.40;;;;;;;;;;5036405;28;20385;-69
2023/10/28 09:44:28;;;;;;;8.40;7.70;;;;;;;;;;5052174;28;20036;-69
2023/10/28 09:47:00;;;;;;;8.35;7.50;;;;;;;;;;5052234;28;20040;-69
2023/10/28 09:49:30;;;;;;;7.97;7.40;;;;;;;;;;5050754;28;20036;-69
2023/10/28 09:52:06;;;;;;;8.73;7.97;;;;;;;;;;5045934;28;20029;-70
2023/10/28 09:54:36;;;;;;;8.90;8.20;;;;;;;;;;5045451;28;20029;-69
2023/10/28 09:57:02;;;;;;;8.70;8.00;;;;;;;;;;5051441;28;20078;-70
2023/10/28 09:59:33;;;;;;;8.23;7.50;;;;;;;;;;5052557;28;20100;-69
2023/10/28 10:02:01;;;;;;;7.55;7.00;;;;;;;;;;5030712;28;20041;-70
2023/10/28 10:04:49;;;;;;;7.90;7.20;;;;;;;;;;5046817;28;20040;-70
2023/10/28 10:07:16;;;;;;;7.68;6.90;;;;;;;;;;5045838;28;20037;-71
2023/10/28 10:09:48;;;;;;;8.55;6.90;;;;;;;;;;5045749;28;20029;-71
2023/10/28 10:12:14;;;;;;;7.90;7.07;;;;;;;;;;5026221;28;20697;-71
2023/10/28 10:14:47;;;;;;;7.72;7.18;;;;;;;;;;5044200;28;20174;-70
2023/10/28 10:17:24;;;;;;;7.97;7.40;;;;;;;;;;5049316;28;20059;-70
2023/10/28 10:19:50;;;;;;;8.20;7.60;;;;;;;;;;5026631;28;20036;-70
2023/10/28 10:22:26;;;;;;;7.93;7.43;;;;;;;;;;5044751;28;20037;-71
2023/10/28 10:24:52;;;;;;;8.90;8.07;;;;;;;;;;5054049;28;20497;-71
2023/10/28 10:27:33;;;;;;;8.30;7.60;;;;;;;;;;5046500;28;20033;-71
2023/10/28 10:30:09;;;;;;;10.05;7.38;;;;;;;;;;5048321;28;20305;-69
2023/10/28 10:32:49;;;;;;;8.50;7.80;;;;;;;;;;5045077;28;20048;-69
2023/10/28 10:35:30;;;;;;;10.02;8.02;;;;;;;;;;5039293;28;20071;-69
2023/10/28 10:38:05;;;;;;;9.43;8.77;;;;;;;;;;5050951;28;20036;-69
2023/10/28 10:40:47;;;;;;;7.78;7.28;;;;;;;;;;5037237;28;20036;-69
2023/10/28 10:43:18;;;;;;;7.68;7.00;;;;;;;;;;5045725;28;20041;-70
2023/10/28 10:45:44;;;;;;;8.57;7.78;;;;;;;;;;5047942;28;20040;-69
2023/10/28 10:48:10;;;;;;;8.15;7.50;;;;;;;;;;5040303;28;20036;-70
2023/10/28 10:50:37;;;;;;;8.00;7.40;;;;;;;;;;5046365;28;20044;-71
2023/10/28 10:53:06;;;;;;;9.15;8.38;;;;;;;;;;5050069;28;20040;-69
2023/10/28 10:55:32;;;;;;;8.30;7.65;;;;;;;;;;5049963;28;20032;-71
2023/10/28 10:57:59;;;;;;;8.40;7.80;;;;;;;;;;5048651;28;20068;-71
2023/10/28 11:00:26;;;;;;;8.73;7.97;;;;;;;;;;5046934;28;20033;-71
2023/10/28 11:02:57;;;;;;;8.45;7.68;;;;;;;;;;5055406;28;20040;-70
2023/10/28 11:05:23;;;;;;;10.10;7.85;;;;;;;;;;5052553;28;20114;-71
2023/10/28 11:07:48;;;;;;;8.13;7.63;;;;;;;;;;5047175;28;20029;-70
2023/10/28 11:10:14;;;;;;;8.45;7.75;;;;;;;;;;5044073;28;20043;-70
2023/10/28 11:12:41;;;;;;;8.75;7.95;;;;;;;;;;5043901;28;20445;-70
2023/10/28 11:15:08;;;;;;;8.50;7.80;;;;;;;;;;5044069;28;20037;-70
2023/10/28 11:17:34;;;;;;;8.63;8.02;;;;;;;;;;5029794;28;20037;-70
2023/10/28 11:20:03;;;;;;;10.43;8.40;;;;;;;;;;5049012;28;20465;-70
2023/10/28 11:22:29;;;;;;;9.10;8.13;;;;;;;;;;5043828;28;20037;-70
2023/10/28 11:24:56;;;;;;;9.02;8.20;;;;;;;;;;5049072;28;20041;-70
2023/10/28 11:27:24;;;;;;;8.45;7.65;;;;;;;;;;5062194;28;20077;-71
2023/10/28 11:29:51;;;;;;;9.52;7.90;;;;;;;;;;5045308;28;20537;-70
2023/10/28 11:32:19;;;;;;;8.70;7.90;;;;;;;;;;5047928;28;20033;-70
2023/10/28 11:34:46;;;;;;;10.20;7.47;;;;;;;;;;5041501;28;20044;-70
2023/10/28 11:37:12;;;;;;;8.38;7.78;;;;;;;;;;5052840;28;20028;-70
2023/10/28 11:39:39;;;;;;;13.77;7.68;;;;;;;;;;5057487;28;20033;-70
2023/10/28 11:42:22;;;;;;;8.80;8.00;;;;;;;;;;5054408;28;20680;-70
2023/10/28 11:44:49;;;;;;;8.95;8.15;;;;;;;;;;5057348;28;20035;-70
2023/10/28 11:47:16;;;;;;;8.50;7.70;;;;;;;;;;5054699;28;20539;-70
2023/10/28 11:49:41;;;;;;;8.55;7.90;;;;;;;;;;5051776;28;20034;-70
2023/10/28 11:52:09;;;;;;;9.35;8.10;;;;;;;;;;5057067;28;20099;-70
2023/10/28 11:54:35;;;;;;;10.10;8.02;;;;;;;;;;5050791;28;20036;-70
2023/10/28 11:57:00;;;;;;;9.95;8.13;;;;;;;;;;5050601;28;20049;-70
2023/10/28 11:59:26;;;;;;;8.77;8.10;;;;;;;;;;5057560;28;20448;-70
2023/10/28 12:01:53;;;;;;;9.13;8.43;;;;;;;;;;5052898;28;20043;-70
2023/10/28 12:04:22;;;;;;;10.23;8.20;;;;;;;;;;5059574;28;20047;-70
2023/10/28 12:06:48;;;;;;;9.05;8.23;;;;;;;;;;5031566;28;20041;-70
2023/10/28 12:09:14;;;;;;;9.07;8.23;;;;;;;;;;5040528;28;20070;-70
2023/10/28 12:11:40;;;;;;;8.70;7.93;;;;;;;;;;5057413;28;20127;-69
2023/10/28 12:14:07;;;;;;;10.13;8.48;;;;;;;;;;5057525;28;20091;-70
2023/10/28 12:16:37;;;;;;;8.93;8.13;;;;;;;;;;5056930;28;20102;-70
2023/10/28 12:19:07;;;;;;;11.00;8.50;;;;;;;;;;5059146;28;20036;-69
2023/10/28 12:21:34;;;;;;;8.68;7.90;;;;;;;;;;5055742;28;20125;-70
2023/10/28 12:24:01;;;;;;;8.40;7.63;;;;;;;;;;5058147;28;20025;-70
2023/10/28 12:26:27;;;;;;;8.73;7.85;;;;;;;;;;5048571;28;20406;-70
2023/10/28 12:28:54;;;;;;;8.48;7.78;;;;;;;;;;5071620;28;20119;-70
2023/10/28 12:31:22;;;;;;;8.23;7.47;;;;;;;;;;5060352;28;20069;-69
2023/10/28 12:33:47;;;;;;;8.63;7.70;;;;;;;;;;5051483;28;20036;-70
2023/10/28 12:36:16;;;;;;;8.60;7.88;;;;;;;;;;5051664;28;20383;-70
2023/10/28 12:38:41;;;;;;;8.80;7.95;;;;;;;;;;5053163;28;20033;-70
2023/10/28 12:41:07;;;;;;;8.80;7.90;;;;;;;;;;5048989;28;20041;-70
2023/10/28 12:43:32;;;;;;;9.32;8.43;;;;;;;;;;5046925;28;20071;-69
2023/10/28 12:45:58;;;;;;;11.30;7.93;;;;;;;;;;5052746;28;20067;-70
2023/10/28 12:48:23;;;;;;;8.70;7.80;;;;;;;;;;5050063;28;20041;-70
2023/10/28 12:50:49;;;;;;;8.93;7.95;;;;;;;;;;5034338;28;20527;-70
2023/10/28 12:53:14;;;;;;;8.73;7.82;;;;;;;;;;5055004;28;20106;-70
2023/10/28 12:55:41;;;;;;;12.15;8.55;;;;;;;;;;5053345;28;20110;-70
2023/10/28 12:58:07;;;;;;;8.40;7.75;;;;;;;;;;5049977;28;20044;-69
2023/10/28 13:00:33;;;;;;;11.07;8.10;;;;;;;;;;5053221;28;20035;-70
2023/10/28 13:02:59;;;;;;;11.10;8.68;;;;;;;;;;5055324;28;20120;-70
2023/10/28 13:05:24;;;;;;;8.90;7.65;;;;;;;;;;5038161;28;20339;-70
2023/10/28 13:07:51;;;;;;;9.75;7.90;;;;;;;;;;5042783;28;20025;-70
2023/10/28 13:10:17;;;;;;;8.60;7.70;;;;;;;;;;5049035;28;20032;-70
2023/10/28 13:12:44;;;;;;;8.85;7.88;;;;;;;;;;5052762;28;20020;-70
2023/10/28 13:15:09;;;;;;;10.60;7.93;;;;;;;;;;5057747;28;20448;-70
2023/10/28 13:17:35;;;;;;;10.93;8.10;;;;;;;;;;5055280;28;20673;-70
2023/10/28 13:20:03;;;;;;;8.40;7.70;;;;;;;;;;5051550;28;20041;-70
2023/10/28 13:22:30;;;;;;;8.48;7.78;;;;;;;;;;5055654;28;20032;-70
2023/10/28 13:24:56;;;;;;;9.52;7.75;;;;;;;;;;5048305;28;20975;-70
2023/10/28 13:27:21;;;;;;;9.60;7.93;;;;;;;;;;5031154;28;20053;-70
2023/10/28 13:29:47;;;;;;;11.02;8.23;;;;;;;;;;5047614;28;20080;-69
2023/10/28 13:32:13;;;;;;;8.90;8.20;;;;;;;;;;5048932;28;20029;-70
2023/10/28 13:34:38;;;;;;;9.00;8.10;;;;;;;;;;5045269;28;20417;-70
2023/10/28 13:37:04;;;;;;;9.40;8.55;;;;;;;;;;5059151;28;20036;-70
2023/10/28 13:39:30;;;;;;;9.32;8.10;;;;;;;;;;5045781;28;20151;-70
2023/10/28 13:41:56;;;;;;;9.32;8.35;;;;;;;;;;5051497;28;20037;-70
2023/10/28 13:44:21;;;;;;;8.98;8.00;;;;;;;;;;5051745;28;20067;-71
2023/10/28 13:46:47;;;;;;;8.32;7.63;;;;;;;;;;5049282;28;20108;-70
2023/10/28 13:49:20;;;;;;;8.77;8.00;;;;;;;;;;5052590;28;20124;-70
2023/10/28 13:51:46;;;;;;;8.82;7.90;;;;;;;;;;5047614;28;20025;-69
2023/10/28 13:54:12;;;;;;;11.18;8.60;;;;;;;;;;5047117;28;20532;-69
2023/10/28 13:56:38;;;;;;;11.40;8.52;;;;;;;;;;5049699;28;20634;-69
2023/10/28 13:59:04;;;;;;;12.68;8.40;;;;;;;;;;5026378;28;20134;-69
2023/10/28 14:01:30;;;;;;;8.80;8.00;;;;;;;;;;5042439;28;20478;-69
2023/10/28 14:03:56;;;;;;;9.00;8.23;;;;;;;;;;5045994;28;20040;-69
2023/10/28 14:06:22;;;;;;;14.35;8.15;;;;;;;;;;5047163;28;20552;-69
2023/10/28 14:08:47;;;;;;;9.02;8.10;;;;;;;;;;5030389;28;20546;-69
2023/10/28 14:11:14;;;;;;;8.70;7.90;;;;;;;;;;5041648;28;20032;-69
2023/10/28 14:13:40;;;;;;;8.85;8.00;;;;;;;;;;5044646;28;20484;-69
2023/10/28 14:16:13;;;;;;;9.20;8.30;;;;;;;;;;5045093;28;20067;-69
2023/10/28 14:18:40;;;;;;;9.00;8.10;;;;;;;;;;5039918;28;20044;-69
2023/10/28 14:21:06;;;;;;;8.75;7.95;;;;;;;;;;5041355;28;20072;-69
2023/10/28 14:23:31;;;;;;;8.60;7.78;;;;;;;;;;5041579;28;20847;-69
2023/10/28 14:25:57;;;;;;;11.40;8.30;;;;;;;;;;5042836;28;20037;-69
2023/10/28 14:28:23;;;;;;;8.88;8.15;;;;;;;;;;5043835;28;20024;-70
2023/10/28 14:30:49;;;;;;;10.80;8.68;;;;;;;;;;5032080;28;20114;-68
2023/10/28 14:33:15;;;;;;;8.90;8.10;;;;;;;;;;5042556;28;20123;-69
2023/10/28 14:35:40;;;;;;;8.68;8.02;;;;;;;;;;5042384;28;20043;-71
2023/10/28 14:38:06;;;;;;;9.32;8.40;;;;;;;;;;5041182;28;20033;-69
2023/10/28 14:40:33;;;;;;;9.18;8.48;;;;;;;;;;5042828;28;20044;-69